sensor_id;sensor_type;location;lat;lon;timestamp;P1;durP1;ratioP1;P2;durP2;ratioP2
54935;SDS011;40838;50.676;7.838;2023-04-07T00:01:38;10.63;;;7.57;;
54935;SDS011;40838;50.676;7.838;2023-04-07T00:04:05;11.73;;;7.43;;
54935;SDS011;40838;50.676;7.838;2023-04-07T00:06:32;19.02;;;7.82;;
54935;SDS011;40838;50.676;7.838;2023-04-07T00:08:59;12.82;;;7.85;;
54935;SDS011;40838;50.676;7.838;2023-04-07T00:11:27;10.70;;;7.55;;
54935;SDS011;40838;50.676;7.838;2023-04-07T00:13:55;14.15;;;8.82;;
54935;SDS011;40838;50.676;7.838;2023-04-07T00:16:22;13.70;;;7.57;;
54935;SDS011;40838;50.676;7.838;2023-04-07T00:18:49;13.90;;;8.95;;
54935;SDS011;40838;50.676;7.838;2023-04-07T00:21:16;13.38;;;8.80;;
54935;SDS011;40838;50.676;7.838;2023-04-07T00:23:42;13.98;;;9.02;;
54935;SDS011;40838;50.676;7.838;2023-04-07T00:26:09;12.45;;;9.40;;
54935;SDS011;40838;50.676;7.838;2023-04-07T00:28:39;15.80;;;9.30;;
54935;SDS011;40838;50.676;7.838;2023-04-07T00:31:06;18.73;;;11.15;;
54935;SDS011;40838;50.676;7.838;2023-04-07T00:33:33;18.63;;;10.98;;
54935;SDS011;40838;50.676;7.838;2023-04-07T00:35:59;17.10;;;11.15;;
54935;SDS011;40838;50.676;7.838;2023-04-07T00:38:26;17.33;;;10.30;;
54935;SDS011;40838;50.676;7.838;2023-04-07T00:40:56;16.23;;;10.55;;
54935;SDS011;40838;50.676;7.838;2023-04-07T00:43:23;19.17;;;11.23;;
54935;SDS011;40838;50.676;7.838;2023-04-07T00:45:52;18.67;;;11.85;;
54935;SDS011;40838;50.676;7.838;2023-04-07T00:48:19;24.17;;;12.98;;
54935;SDS011;40838;50.676;7.838;2023-04-07T00:50:47;20.75;;;13.10;;
54935;SDS011;40838;50.676;7.838;2023-04-07T00:53:14;21.73;;;13.25;;
54935;SDS011;40838;50.676;7.838;2023-04-07T00:55:40;23.77;;;13.75;;
54935;SDS011;40838;50.676;7.838;2023-04-07T00:58:07;25.80;;;14.18;;
54935;SDS011;40838;50.676;7.838;2023-04-07T01:00:34;27.45;;;14.63;;
54935;SDS011;40838;50.676;7.838;2023-04-07T01:03:08;23.15;;;14.75;;
54935;SDS011;40838;50.676;7.838;2023-04-07T01:05:41;27.50;;;15.07;;
54935;SDS011;40838;50.676;7.838;2023-04-07T01:08:14;26.92;;;15.82;;
54935;SDS011;40838;50.676;7.838;2023-04-07T01:10:49;26.88;;;16.00;;
54935;SDS011;40838;50.676;7.838;2023-04-07T01:13:21;29.97;;;17.47;;
54935;SDS011;40838;50.676;7.838;2023-04-07T01:16:03;27.58;;;16.75;;
54935;SDS011;40838;50.676;7.838;2023-04-07T01:18:41;26.13;;;15.48;;
54935;SDS011;40838;50.676;7.838;2023-04-07T01:21:13;30.23;;;16.75;;
54935;SDS011;40838;50.676;7.838;2023-04-07T01:23:48;28.23;;;15.27;;
54935;SDS011;40838;50.676;7.838;2023-04-07T01:26:25;27.42;;;16.17;;
54935;SDS011;40838;50.676;7.838;2023-04-07T01:28:56;29.98;;;17.38;;
54935;SDS011;40838;50.676;7.838;2023-04-07T01:31:38;26.48;;;16.45;;
54935;SDS011;40838;50.676;7.838;2023-04-07T01:34:06;25.88;;;15.57;;
54935;SDS011;40838;50.676;7.838;2023-04-07T01:36:35;28.10;;;16.20;;
54935;SDS011;40838;50.676;7.838;2023-04-07T01:39:02;23.13;;;14.05;;
54935;SDS011;40838;50.676;7.838;2023-04-07T01:41:29;27.20;;;14.98;;
54935;SDS011;40838;50.676;7.838;2023-04-07T01:43:57;25.48;;;15.38;;
54935;SDS011;40838;50.676;7.838;2023-04-07T01:46:26;26.38;;;15.57;;
54935;SDS011;40838;50.676;7.838;2023-04-07T01:48:54;27.70;;;15.38;;
54935;SDS011;40838;50.676;7.838;2023-04-07T01:51:21;26.17;;;16.70;;
54935;SDS011;40838;50.676;7.838;2023-04-07T01:53:51;25.83;;;15.00;;
54935;SDS011;40838;50.676;7.838;2023-04-07T01:56:18;28.92;;;15.88;;
54935;SDS011;40838;50.676;7.838;2023-04-07T01:58:49;24.67;;;14.85;;
54935;SDS011;40838;50.676;7.838;2023-04-07T02:01:19;31.10;;;16.95;;
54935;SDS011;40838;50.676;7.838;2023-04-07T02:03:48;37.63;;;18.52;;
54935;SDS011;40838;50.676;7.838;2023-04-07T02:06:22;30.23;;;16.50;;
54935;SDS011;40838;50.676;7.838;2023-04-07T02:08:54;30.10;;;17.48;;
54935;SDS011;40838;50.676;7.838;2023-04-07T02:11:24;28.63;;;16.70;;
54935;SDS011;40838;50.676;7.838;2023-04-07T02:13:56;30.63;;;17.42;;
54935;SDS011;40838;50.676;7.838;2023-04-07T02:16:29;31.23;;;17.00;;
54935;SDS011;40838;50.676;7.838;2023-04-07T02:18:56;28.88;;;17.48;;
54935;SDS011;40838;50.676;7.838;2023-04-07T02:21:25;29.95;;;17.20;;
54935;SDS011;40838;50.676;7.838;2023-04-07T02:23:54;31.35;;;18.02;;
54935;SDS011;40838;50.676;7.838;2023-04-07T02:26:21;34.25;;;17.95;;
54935;SDS011;40838;50.676;7.838;2023-04-07T02:28:48;30.08;;;16.77;;
54935;SDS011;40838;50.676;7.838;2023-04-07T02:31:16;33.88;;;17.63;;
54935;SDS011;40838;50.676;7.838;2023-04-07T02:33:42;31.92;;;17.73;;
54935;SDS011;40838;50.676;7.838;2023-04-07T02:36:11;31.48;;;17.23;;
54935;SDS011;40838;50.676;7.838;2023-04-07T02:38:40;31.52;;;16.70;;
54935;SDS011;40838;50.676;7.838;2023-04-07T02:41:07;27.98;;;16.80;;
54935;SDS011;40838;50.676;7.838;2023-04-07T02:43:34;31.27;;;15.35;;
54935;SDS011;40838;50.676;7.838;2023-04-07T02:46:01;28.70;;;15.98;;
54935;SDS011;40838;50.676;7.838;2023-04-07T02:48:28;29.75;;;16.13;;
54935;SDS011;40838;50.676;7.838;2023-04-07T02:50:55;26.02;;;15.20;;
54935;SDS011;40838;50.676;7.838;2023-04-07T02:53:22;31.90;;;16.30;;
54935;SDS011;40838;50.676;7.838;2023-04-07T02:55:50;30.30;;;16.08;;
54935;SDS011;40838;50.676;7.838;2023-04-07T02:58:17;26.05;;;15.30;;
54935;SDS011;40838;50.676;7.838;2023-04-07T03:00:44;29.33;;;16.48;;
54935;SDS011;40838;50.676;7.838;2023-04-07T03:03:17;26.83;;;15.43;;
54935;SDS011;40838;50.676;7.838;2023-04-07T03:05:57;25.85;;;14.77;;
54935;SDS011;40838;50.676;7.838;2023-04-07T03:08:25;27.70;;;15.38;;
54935;SDS011;40838;50.676;7.838;2023-04-07T03:10:54;33.10;;;16.17;;
54935;SDS011;40838;50.676;7.838;2023-04-07T03:13:26;28.17;;;15.85;;
54935;SDS011;40838;50.676;7.838;2023-04-07T03:15:54;27.65;;;15.48;;
54935;SDS011;40838;50.676;7.838;2023-04-07T03:18:22;29.58;;;16.92;;
54935;SDS011;40838;50.676;7.838;2023-04-07T03:20:50;26.98;;;15.15;;
54935;SDS011;40838;50.676;7.838;2023-04-07T03:23:19;25.75;;;14.52;;
54935;SDS011;40838;50.676;7.838;2023-04-07T03:25:48;29.98;;;16.30;;
54935;SDS011;40838;50.676;7.838;2023-04-07T03:28:16;33.42;;;16.73;;
54935;SDS011;40838;50.676;7.838;2023-04-07T03:30:43;29.77;;;16.00;;
54935;SDS011;40838;50.676;7.838;2023-04-07T03:33:11;32.78;;;17.70;;
54935;SDS011;40838;50.676;7.838;2023-04-07T03:35:38;30.88;;;16.55;;
54935;SDS011;40838;50.676;7.838;2023-04-07T03:38:06;28.65;;;15.70;;
54935;SDS011;40838;50.676;7.838;2023-04-07T03:40:35;35.78;;;17.83;;
54935;SDS011;40838;50.676;7.838;2023-04-07T03:43:02;34.28;;;17.17;;
54935;SDS011;40838;50.676;7.838;2023-04-07T03:45:30;32.00;;;17.65;;
54935;SDS011;40838;50.676;7.838;2023-04-07T03:48:00;33.17;;;16.92;;
54935;SDS011;40838;50.676;7.838;2023-04-07T03:50:27;37.55;;;17.08;;
54935;SDS011;40838;50.676;7.838;2023-04-07T03:53:09;31.10;;;16.50;;
54935;SDS011;40838;50.676;7.838;2023-04-07T03:55:38;36.72;;;17.92;;
54935;SDS011;40838;50.676;7.838;2023-04-07T03:58:14;38.78;;;18.98;;
54935;SDS011;40838;50.676;7.838;2023-04-07T04:00:46;31.05;;;17.33;;
54935;SDS011;40838;50.676;7.838;2023-04-07T04:03:13;31.15;;;16.90;;
54935;SDS011;40838;50.676;7.838;2023-04-07T04:05:53;30.98;;;16.95;;
54935;SDS011;40838;50.676;7.838;2023-04-07T04:08:26;35.20;;;18.40;;
54935;SDS011;40838;50.676;7.838;2023-04-07T04:10:52;34.63;;;17.35;;
54935;SDS011;40838;50.676;7.838;2023-04-07T04:13:25;35.40;;;18.20;;
54935;SDS011;40838;50.676;7.838;2023-04-07T04:15:56;37.53;;;19.00;;
54935;SDS011;40838;50.676;7.838;2023-04-07T04:18:23;37.50;;;18.95;;
54935;SDS011;40838;50.676;7.838;2023-04-07T04:20:52;32.22;;;17.10;;
54935;SDS011;40838;50.676;7.838;2023-04-07T04:23:19;38.83;;;19.17;;
54935;SDS011;40838;50.676;7.838;2023-04-07T04:25:49;37.88;;;18.88;;
54935;SDS011;40838;50.676;7.838;2023-04-07T04:28:16;37.83;;;17.60;;
54935;SDS011;40838;50.676;7.838;2023-04-07T04:30:43;32.58;;;17.10;;
54935;SDS011;40838;50.676;7.838;2023-04-07T04:33:11;33.17;;;17.08;;
54935;SDS011;40838;50.676;7.838;2023-04-07T04:35:50;33.75;;;17.50;;
54935;SDS011;40838;50.676;7.838;2023-04-07T04:38:19;35.05;;;17.08;;
54935;SDS011;40838;50.676;7.838;2023-04-07T04:40:52;35.28;;;18.17;;
54935;SDS011;40838;50.676;7.838;2023-04-07T04:43:25;35.38;;;17.40;;
54935;SDS011;40838;50.676;7.838;2023-04-07T04:45:53;35.22;;;17.40;;
54935;SDS011;40838;50.676;7.838;2023-04-07T04:48:25;28.95;;;16.35;;
54935;SDS011;40838;50.676;7.838;2023-04-07T04:50:52;28.58;;;16.38;;
54935;SDS011;40838;50.676;7.838;2023-04-07T04:53:20;33.90;;;17.00;;
54935;SDS011;40838;50.676;7.838;2023-04-07T04:55:55;34.00;;;17.42;;
54935;SDS011;40838;50.676;7.838;2023-04-07T04:58:39;33.83;;;17.65;;
54935;SDS011;40838;50.676;7.838;2023-04-07T05:01:12;33.70;;;16.88;;
54935;SDS011;40838;50.676;7.838;2023-04-07T05:03:48;33.78;;;17.20;;
54935;SDS011;40838;50.676;7.838;2023-04-07T05:06:20;35.03;;;17.20;;
54935;SDS011;40838;50.676;7.838;2023-04-07T05:08:49;33.33;;;17.33;;
54935;SDS011;40838;50.676;7.838;2023-04-07T05:11:20;34.53;;;17.20;;
54935;SDS011;40838;50.676;7.838;2023-04-07T05:13:50;30.33;;;16.50;;
54935;SDS011;40838;50.676;7.838;2023-04-07T05:16:17;33.55;;;17.40;;
54935;SDS011;40838;50.676;7.838;2023-04-07T05:18:46;34.15;;;16.45;;
54935;SDS011;40838;50.676;7.838;2023-04-07T05:21:15;31.77;;;16.88;;
54935;SDS011;40838;50.676;7.838;2023-04-07T05:23:45;33.83;;;17.05;;
54935;SDS011;40838;50.676;7.838;2023-04-07T05:26:12;29.55;;;17.00;;
54935;SDS011;40838;50.676;7.838;2023-04-07T05:28:40;30.27;;;15.98;;
54935;SDS011;40838;50.676;7.838;2023-04-07T05:31:13;29.27;;;15.98;;
54935;SDS011;40838;50.676;7.838;2023-04-07T05:33:40;32.63;;;17.20;;
54935;SDS011;40838;50.676;7.838;2023-04-07T05:36:09;28.90;;;16.00;;
54935;SDS011;40838;50.676;7.838;2023-04-07T05:38:38;32.70;;;16.77;;
54935;SDS011;40838;50.676;7.838;2023-04-07T05:41:10;32.47;;;16.25;;
54935;SDS011;40838;50.676;7.838;2023-04-07T05:43:37;30.17;;;16.63;;
54935;SDS011;40838;50.676;7.838;2023-04-07T05:46:05;30.92;;;15.95;;
54935;SDS011;40838;50.676;7.838;2023-04-07T05:48:36;28.30;;;15.75;;
54935;SDS011;40838;50.676;7.838;2023-04-07T05:51:03;27.48;;;15.18;;
54935;SDS011;40838;50.676;7.838;2023-04-07T05:53:31;30.50;;;15.48;;
54935;SDS011;40838;50.676;7.838;2023-04-07T05:55:58;28.25;;;14.57;;
54935;SDS011;40838;50.676;7.838;2023-04-07T05:58:45;25.75;;;14.15;;
54935;SDS011;40838;50.676;7.838;2023-04-07T06:01:13;29.63;;;15.57;;
54935;SDS011;40838;50.676;7.838;2023-04-07T06:03:41;26.67;;;14.52;;
54935;SDS011;40838;50.676;7.838;2023-04-07T06:06:14;25.75;;;13.73;;
54935;SDS011;40838;50.676;7.838;2023-04-07T06:08:43;27.05;;;14.88;;
54935;SDS011;40838;50.676;7.838;2023-04-07T06:11:10;30.05;;;16.02;;
54935;SDS011;40838;50.676;7.838;2023-04-07T06:13:39;26.85;;;15.13;;
54935;SDS011;40838;50.676;7.838;2023-04-07T06:16:07;25.08;;;12.60;;
54935;SDS011;40838;50.676;7.838;2023-04-07T06:18:36;22.67;;;13.88;;
54935;SDS011;40838;50.676;7.838;2023-04-07T06:21:05;25.30;;;14.02;;
54935;SDS011;40838;50.676;7.838;2023-04-07T06:23:31;26.35;;;14.48;;
54935;SDS011;40838;50.676;7.838;2023-04-07T06:26:00;26.38;;;14.20;;
54935;SDS011;40838;50.676;7.838;2023-04-07T06:28:28;28.55;;;14.88;;
54935;SDS011;40838;50.676;7.838;2023-04-07T06:30:57;22.42;;;13.07;;
54935;SDS011;40838;50.676;7.838;2023-04-07T06:33:24;22.52;;;12.25;;
54935;SDS011;40838;50.676;7.838;2023-04-07T06:35:50;24.00;;;13.02;;
54935;SDS011;40838;50.676;7.838;2023-04-07T06:38:17;25.70;;;12.60;;
54935;SDS011;40838;50.676;7.838;2023-04-07T06:40:44;28.05;;;13.25;;
54935;SDS011;40838;50.676;7.838;2023-04-07T06:43:12;24.10;;;12.38;;
54935;SDS011;40838;50.676;7.838;2023-04-07T06:45:49;23.65;;;12.40;;
54935;SDS011;40838;50.676;7.838;2023-04-07T06:48:16;21.88;;;12.43;;
54935;SDS011;40838;50.676;7.838;2023-04-07T06:50:44;19.15;;;11.63;;
54935;SDS011;40838;50.676;7.838;2023-04-07T06:53:11;23.05;;;12.60;;
54935;SDS011;40838;50.676;7.838;2023-04-07T06:55:38;19.55;;;11.60;;
54935;SDS011;40838;50.676;7.838;2023-04-07T06:58:05;19.42;;;10.75;;
54935;SDS011;40838;50.676;7.838;2023-04-07T07:00:34;21.17;;;12.30;;
54935;SDS011;40838;50.676;7.838;2023-04-07T07:03:01;14.77;;;9.60;;
54935;SDS011;40838;50.676;7.838;2023-04-07T07:05:28;19.27;;;11.10;;
54935;SDS011;40838;50.676;7.838;2023-04-07T07:07:56;16.52;;;9.65;;
54935;SDS011;40838;50.676;7.838;2023-04-07T07:10:23;17.27;;;9.98;;
54935;SDS011;40838;50.676;7.838;2023-04-07T07:12:50;17.58;;;10.45;;
54935;SDS011;40838;50.676;7.838;2023-04-07T07:15:17;15.80;;;9.38;;
54935;SDS011;40838;50.676;7.838;2023-04-07T07:17:45;16.15;;;10.45;;
54935;SDS011;40838;50.676;7.838;2023-04-07T07:20:12;25.27;;;9.98;;
54935;SDS011;40838;50.676;7.838;2023-04-07T07:22:39;15.80;;;9.48;;
54935;SDS011;40838;50.676;7.838;2023-04-07T07:25:06;17.88;;;10.40;;
54935;SDS011;40838;50.676;7.838;2023-04-07T07:27:34;16.60;;;9.98;;
54935;SDS011;40838;50.676;7.838;2023-04-07T07:30:05;18.05;;;10.02;;
54935;SDS011;40838;50.676;7.838;2023-04-07T07:32:33;15.73;;;9.32;;
54935;SDS011;40838;50.676;7.838;2023-04-07T07:35:03;15.07;;;9.15;;
54935;SDS011;40838;50.676;7.838;2023-04-07T07:37:30;13.95;;;8.93;;
54935;SDS011;40838;50.676;7.838;2023-04-07T07:39:58;14.70;;;9.32;;
54935;SDS011;40838;50.676;7.838;2023-04-07T07:42:28;15.60;;;8.90;;
54935;SDS011;40838;50.676;7.838;2023-04-07T07:44:55;13.18;;;8.57;;
54935;SDS011;40838;50.676;7.838;2023-04-07T07:47:23;15.35;;;8.38;;
54935;SDS011;40838;50.676;7.838;2023-04-07T07:49:52;12.98;;;8.63;;
54935;SDS011;40838;50.676;7.838;2023-04-07T07:52:23;11.65;;;7.65;;
54935;SDS011;40838;50.676;7.838;2023-04-07T07:54:53;11.18;;;6.80;;
54935;SDS011;40838;50.676;7.838;2023-04-07T07:57:22;10.68;;;7.43;;
54935;SDS011;40838;50.676;7.838;2023-04-07T07:59:51;11.77;;;7.70;;
54935;SDS011;40838;50.676;7.838;2023-04-07T08:02:20;12.68;;;7.50;;
54935;SDS011;40838;50.676;7.838;2023-04-07T08:04:55;10.30;;;6.63;;
54935;SDS011;40838;50.676;7.838;2023-04-07T08:07:25;9.75;;;6.88;;
54935;SDS011;40838;50.676;7.838;2023-04-07T08:09:53;10.88;;;6.82;;
54935;SDS011;40838;50.676;7.838;2023-04-07T08:12:20;11.35;;;6.43;;
54935;SDS011;40838;50.676;7.838;2023-04-07T08:14:47;9.57;;;6.57;;
54935;SDS011;40838;50.676;7.838;2023-04-07T08:17:14;10.50;;;7.47;;
54935;SDS011;40838;50.676;7.838;2023-04-07T08:19:41;11.73;;;7.43;;
54935;SDS011;40838;50.676;7.838;2023-04-07T08:22:08;14.75;;;7.97;;
54935;SDS011;40838;50.676;7.838;2023-04-07T08:24:36;11.63;;;7.80;;
54935;SDS011;40838;50.676;7.838;2023-04-07T08:27:03;11.13;;;8.20;;
54935;SDS011;40838;50.676;7.838;2023-04-07T08:29:30;12.00;;;8.27;;
54935;SDS011;40838;50.676;7.838;2023-04-07T08:31:57;11.43;;;7.93;;
54935;SDS011;40838;50.676;7.838;2023-04-07T08:34:24;8.63;;;6.35;;
54935;SDS011;40838;50.676;7.838;2023-04-07T08:36:50;8.55;;;6.40;;
54935;SDS011;40838;50.676;7.838;2023-04-07T08:39:17;9.80;;;6.55;;
54935;SDS011;40838;50.676;7.838;2023-04-07T08:41:45;15.32;;;9.48;;
54935;SDS011;40838;50.676;7.838;2023-04-07T08:44:14;13.55;;;8.05;;
54935;SDS011;40838;50.676;7.838;2023-04-07T08:46:43;12.57;;;8.65;;
54935;SDS011;40838;50.676;7.838;2023-04-07T08:49:12;9.15;;;6.63;;
54935;SDS011;40838;50.676;7.838;2023-04-07T08:51:43;9.13;;;6.88;;
54935;SDS011;40838;50.676;7.838;2023-04-07T08:54:13;11.48;;;8.02;;
54935;SDS011;40838;50.676;7.838;2023-04-07T08:56:43;8.93;;;6.68;;
54935;SDS011;40838;50.676;7.838;2023-04-07T08:59:13;12.32;;;7.45;;
54935;SDS011;40838;50.676;7.838;2023-04-07T09:01:42;9.82;;;6.72;;
54935;SDS011;40838;50.676;7.838;2023-04-07T09:04:11;10.05;;;6.85;;
54935;SDS011;40838;50.676;7.838;2023-04-07T09:06:38;8.27;;;5.75;;
54935;SDS011;40838;50.676;7.838;2023-04-07T09:09:05;8.25;;;5.70;;
54935;SDS011;40838;50.676;7.838;2023-04-07T09:11:34;8.00;;;5.15;;
54935;SDS011;40838;50.676;7.838;2023-04-07T09:14:01;6.75;;;5.25;;
54935;SDS011;40838;50.676;7.838;2023-04-07T09:16:30;8.18;;;5.07;;
54935;SDS011;40838;50.676;7.838;2023-04-07T09:18:57;9.88;;;6.95;;
54935;SDS011;40838;50.676;7.838;2023-04-07T09:21:24;6.18;;;4.68;;
54935;SDS011;40838;50.676;7.838;2023-04-07T09:23:51;8.15;;;5.50;;
54935;SDS011;40838;50.676;7.838;2023-04-07T09:26:19;12.02;;;5.82;;
54935;SDS011;40838;50.676;7.838;2023-04-07T09:28:49;8.40;;;5.80;;
54935;SDS011;40838;50.676;7.838;2023-04-07T09:31:18;6.50;;;4.43;;
54935;SDS011;40838;50.676;7.838;2023-04-07T09:33:47;6.75;;;4.35;;
54935;SDS011;40838;50.676;7.838;2023-04-07T09:36:15;6.07;;;3.88;;
54935;SDS011;40838;50.676;7.838;2023-04-07T09:38:42;5.45;;;4.30;;
54935;SDS011;40838;50.676;7.838;2023-04-07T09:41:11;6.00;;;3.75;;
54935;SDS011;40838;50.676;7.838;2023-04-07T09:43:39;7.72;;;4.82;;
54935;SDS011;40838;50.676;7.838;2023-04-07T09:46:09;6.20;;;4.45;;
54935;SDS011;40838;50.676;7.838;2023-04-07T09:48:37;5.50;;;4.10;;
54935;SDS011;40838;50.676;7.838;2023-04-07T09:51:06;5.38;;;3.80;;
54935;SDS011;40838;50.676;7.838;2023-04-07T09:53:42;5.90;;;3.88;;
54935;SDS011;40838;50.676;7.838;2023-04-07T09:56:11;7.60;;;4.65;;
54935;SDS011;40838;50.676;7.838;2023-04-07T09:58:38;5.72;;;4.07;;
54935;SDS011;40838;50.676;7.838;2023-04-07T10:01:06;5.00;;;3.72;;
54935;SDS011;40838;50.676;7.838;2023-04-07T10:03:33;3.65;;;3.00;;
54935;SDS011;40838;50.676;7.838;2023-04-07T10:06:03;4.38;;;3.55;;
54935;SDS011;40838;50.676;7.838;2023-04-07T10:08:33;5.47;;;3.63;;
54935;SDS011;40838;50.676;7.838;2023-04-07T10:11:01;7.38;;;3.70;;
54935;SDS011;40838;50.676;7.838;2023-04-07T10:13:29;11.27;;;4.40;;
54935;SDS011;40838;50.676;7.838;2023-04-07T10:15:57;5.78;;;4.07;;
54935;SDS011;40838;50.676;7.838;2023-04-07T10:18:25;4.60;;;3.20;;
54935;SDS011;40838;50.676;7.838;2023-04-07T10:20:55;3.72;;;2.90;;
54935;SDS011;40838;50.676;7.838;2023-04-07T10:23:24;3.67;;;3.22;;
54935;SDS011;40838;50.676;7.838;2023-04-07T10:25:55;4.60;;;3.33;;
54935;SDS011;40838;50.676;7.838;2023-04-07T10:28:25;4.18;;;3.17;;
54935;SDS011;40838;50.676;7.838;2023-04-07T10:30:53;3.97;;;2.75;;
54935;SDS011;40838;50.676;7.838;2023-04-07T10:36:12;4.22;;;3.20;;
54935;SDS011;40838;50.676;7.838;2023-04-07T10:38:39;4.30;;;2.92;;
54935;SDS011;40838;50.676;7.838;2023-04-07T10:43:59;5.03;;;3.30;;
54935;SDS011;40838;50.676;7.838;2023-04-07T10:49:28;5.05;;;4.05;;
54935;SDS011;40838;50.676;7.838;2023-04-07T11:00:41;6.82;;;3.88;;
54935;SDS011;40838;50.676;7.838;2023-04-07T11:03:09;9.82;;;5.18;;
54935;SDS011;40838;50.676;7.838;2023-04-07T11:05:38;9.85;;;6.32;;
54935;SDS011;40838;50.676;7.838;2023-04-07T11:08:05;6.93;;;4.88;;
54935;SDS011;40838;50.676;7.838;2023-04-07T11:10:32;9.80;;;5.30;;
54935;SDS011;40838;50.676;7.838;2023-04-07T11:13:05;7.35;;;4.75;;
54935;SDS011;40838;50.676;7.838;2023-04-07T11:15:34;10.37;;;5.53;;
54935;SDS011;40838;50.676;7.838;2023-04-07T11:18:08;8.23;;;5.75;;
54935;SDS011;40838;50.676;7.838;2023-04-07T11:20:43;8.13;;;5.32;;
54935;SDS011;40838;50.676;7.838;2023-04-07T11:23:12;9.68;;;7.95;;
54935;SDS011;40838;50.676;7.838;2023-04-07T11:25:41;9.77;;;5.88;;
54935;SDS011;40838;50.676;7.838;2023-04-07T11:28:10;12.00;;;7.88;;
54935;SDS011;40838;50.676;7.838;2023-04-07T11:30:43;11.68;;;7.70;;
54935;SDS011;40838;50.676;7.838;2023-04-07T11:33:19;10.50;;;7.18;;
54935;SDS011;40838;50.676;7.838;2023-04-07T11:38:15;15.07;;;9.68;;
54935;SDS011;40838;50.676;7.838;2023-04-07T11:40:41;11.00;;;6.40;;
54935;SDS011;40838;50.676;7.838;2023-04-07T11:43:15;14.55;;;9.40;;
54935;SDS011;40838;50.676;7.838;2023-04-07T11:45:44;13.30;;;9.60;;
54935;SDS011;40838;50.676;7.838;2023-04-07T11:48:27;19.23;;;11.98;;
54935;SDS011;40838;50.676;7.838;2023-04-07T11:50:55;16.10;;;10.45;;
54935;SDS011;40838;50.676;7.838;2023-04-07T11:53:26;16.33;;;8.80;;
54935;SDS011;40838;50.676;7.838;2023-04-07T11:56:03;44.13;;;29.30;;
54935;SDS011;40838;50.676;7.838;2023-04-07T11:58:34;15.57;;;10.55;;
54935;SDS011;40838;50.676;7.838;2023-04-07T12:01:03;24.20;;;14.88;;
54935;SDS011;40838;50.676;7.838;2023-04-07T12:03:33;17.70;;;10.15;;
54935;SDS011;40838;50.676;7.838;2023-04-07T12:06:00;21.83;;;14.60;;
54935;SDS011;40838;50.676;7.838;2023-04-07T12:08:40;21.17;;;14.63;;
54935;SDS011;40838;50.676;7.838;2023-04-07T12:11:08;16.33;;;9.40;;
54935;SDS011;40838;50.676;7.838;2023-04-07T12:13:35;26.42;;;16.05;;
54935;SDS011;40838;50.676;7.838;2023-04-07T12:16:04;15.68;;;9.90;;
54935;SDS011;40838;50.676;7.838;2023-04-07T12:18:31;8.93;;;6.20;;
54935;SDS011;40838;50.676;7.838;2023-04-07T12:20:58;8.48;;;5.75;;
54935;SDS011;40838;50.676;7.838;2023-04-07T12:23:24;25.08;;;16.65;;
54935;SDS011;40838;50.676;7.838;2023-04-07T12:25:51;16.85;;;10.70;;
54935;SDS011;40838;50.676;7.838;2023-04-07T12:28:18;10.38;;;6.78;;
54935;SDS011;40838;50.676;7.838;2023-04-07T12:30:45;25.38;;;16.73;;
54935;SDS011;40838;50.676;7.838;2023-04-07T12:33:13;14.52;;;8.00;;
54935;SDS011;40838;50.676;7.838;2023-04-07T12:35:40;9.52;;;6.00;;
54935;SDS011;40838;50.676;7.838;2023-04-07T12:38:07;8.68;;;6.03;;
54935;SDS011;40838;50.676;7.838;2023-04-07T12:40:34;14.25;;;8.25;;
54935;SDS011;40838;50.676;7.838;2023-04-07T12:43:02;18.20;;;11.27;;
54935;SDS011;40838;50.676;7.838;2023-04-07T12:45:29;12.27;;;7.93;;
54935;SDS011;40838;50.676;7.838;2023-04-07T12:47:56;21.70;;;13.82;;
54935;SDS011;40838;50.676;7.838;2023-04-07T12:50:25;12.25;;;7.47;;
54935;SDS011;40838;50.676;7.838;2023-04-07T12:52:53;14.27;;;8.75;;
54935;SDS011;40838;50.676;7.838;2023-04-07T12:55:20;13.07;;;7.07;;
54935;SDS011;40838;50.676;7.838;2023-04-07T12:57:47;11.85;;;7.10;;
54935;SDS011;40838;50.676;7.838;2023-04-07T13:00:14;13.25;;;7.38;;
54935;SDS011;40838;50.676;7.838;2023-04-07T13:02:42;10.63;;;6.75;;
54935;SDS011;40838;50.676;7.838;2023-04-07T13:05:09;12.52;;;6.70;;
54935;SDS011;40838;50.676;7.838;2023-04-07T13:07:37;10.35;;;6.35;;
54935;SDS011;40838;50.676;7.838;2023-04-07T13:10:04;9.20;;;4.93;;
54935;SDS011;40838;50.676;7.838;2023-04-07T13:12:33;11.25;;;7.53;;
54935;SDS011;40838;50.676;7.838;2023-04-07T13:15:00;15.35;;;9.45;;
54935;SDS011;40838;50.676;7.838;2023-04-07T13:17:27;10.63;;;6.63;;
54935;SDS011;40838;50.676;7.838;2023-04-07T13:19:57;11.45;;;6.50;;
54935;SDS011;40838;50.676;7.838;2023-04-07T13:22:24;25.98;;;15.15;;
54935;SDS011;40838;50.676;7.838;2023-04-07T13:24:52;17.70;;;10.75;;
54935;SDS011;40838;50.676;7.838;2023-04-07T13:27:19;10.25;;;6.15;;
54935;SDS011;40838;50.676;7.838;2023-04-07T13:29:49;24.27;;;12.07;;
54935;SDS011;40838;50.676;7.838;2023-04-07T13:32:19;40.58;;;17.60;;
54935;SDS011;40838;50.676;7.838;2023-04-07T13:34:48;13.60;;;8.32;;
54935;SDS011;40838;50.676;7.838;2023-04-07T13:37:18;11.13;;;7.35;;
54935;SDS011;40838;50.676;7.838;2023-04-07T13:39:45;12.95;;;7.70;;
54935;SDS011;40838;50.676;7.838;2023-04-07T13:42:16;11.98;;;7.68;;
54935;SDS011;40838;50.676;7.838;2023-04-07T13:44:47;10.60;;;7.18;;
54935;SDS011;40838;50.676;7.838;2023-04-07T13:47:16;13.65;;;8.60;;
54935;SDS011;40838;50.676;7.838;2023-04-07T13:49:44;16.42;;;8.68;;
54935;SDS011;40838;50.676;7.838;2023-04-07T13:52:16;11.73;;;7.45;;
54935;SDS011;40838;50.676;7.838;2023-04-07T13:54:44;11.30;;;7.78;;
54935;SDS011;40838;50.676;7.838;2023-04-07T13:57:11;13.15;;;8.40;;
54935;SDS011;40838;50.676;7.838;2023-04-07T13:59:44;15.15;;;8.80;;
54935;SDS011;40838;50.676;7.838;2023-04-07T14:02:12;12.45;;;8.15;;
54935;SDS011;40838;50.676;7.838;2023-04-07T14:04:39;12.23;;;8.35;;
54935;SDS011;40838;50.676;7.838;2023-04-07T14:07:06;13.30;;;8.70;;
54935;SDS011;40838;50.676;7.838;2023-04-07T14:09:34;19.52;;;9.88;;
54935;SDS011;40838;50.676;7.838;2023-04-07T14:12:02;17.67;;;10.35;;
54935;SDS011;40838;50.676;7.838;2023-04-07T14:14:29;15.55;;;8.93;;
54935;SDS011;40838;50.676;7.838;2023-04-07T14:16:57;14.73;;;8.00;;
54935;SDS011;40838;50.676;7.838;2023-04-07T14:19:24;12.15;;;6.88;;
54935;SDS011;40838;50.676;7.838;2023-04-07T14:21:51;2.00;;;1.70;;
54935;SDS011;40838;50.676;7.838;2023-04-07T14:24:18;1.83;;;1.50;;
54935;SDS011;40838;50.676;7.838;2023-04-07T14:26:45;0.77;;;0.77;;
54935;SDS011;40838;50.676;7.838;2023-04-07T14:29:12;1.05;;;0.80;;
54935;SDS011;40838;50.676;7.838;2023-04-07T14:31:39;1.27;;;0.70;;
54935;SDS011;40838;50.676;7.838;2023-04-07T14:34:08;0.50;;;0.50;;
54935;SDS011;40838;50.676;7.838;2023-04-07T14:36:35;0.50;;;0.50;;
54935;SDS011;40838;50.676;7.838;2023-04-07T14:39:02;0.60;;;0.60;;
54935;SDS011;40838;50.676;7.838;2023-04-07T14:41:30;0.47;;;0.40;;
54935;SDS011;40838;50.676;7.838;2023-04-07T14:43:57;0.95;;;0.73;;
54935;SDS011;40838;50.676;7.838;2023-04-07T14:46:25;0.60;;;0.50;;
54935;SDS011;40838;50.676;7.838;2023-04-07T14:48:52;1.65;;;0.60;;
54935;SDS011;40838;50.676;7.838;2023-04-07T14:51:20;0.50;;;0.50;;
54935;SDS011;40838;50.676;7.838;2023-04-07T14:53:47;0.43;;;0.43;;
54935;SDS011;40838;50.676;7.838;2023-04-07T14:56:17;0.50;;;0.50;;
54935;SDS011;40838;50.676;7.838;2023-04-07T14:58:45;0.73;;;0.43;;
54935;SDS011;40838;50.676;7.838;2023-04-07T15:01:12;0.70;;;0.50;;